Time;durP1;ratioP1;P1;durP2;ratioP2;P2;SDS_P1;SDS_P2;PMS_P1;PMS_P2;Temp;Humidity;BMP_temperature;BMP_pressure;BME280_temperature;BME280_humidity;BME280_pressure;Samples;Min_cycle;Max_cycle;Signal;HPM_P1;HPM_P2
2023/07/22 00:00:14;;;;;;;1.50;0.50;;;17.80;1.00;;;;;;5076693;28;20431;-54
2023/07/22 00:02:41;;;;;;;0.60;0.50;;;17.60;99.90;;;;;;5076348;28;20450;-50
2023/07/22 00:05:10;;;;;;;0.80;0.50;;;17.50;1.00;;;;;;5076701;28;20436;-50
2023/07/22 00:07:40;;;;;;;0.80;0.50;;;17.30;1.00;;;;;;5076108;28;20918;-48
2023/07/22 00:10:08;;;;;;;0.80;0.50;;;17.30;38.00;;;;;;5077068;28;20523;-50
2023/07/22 00:12:36;;;;;;;0.70;0.40;;;17.30;99.90;;;;;;5077412;28;20484;-49
2023/07/22 00:15:06;;;;;;;0.80;0.50;;;17.30;57.70;;;;;;5077567;28;20427;-53
2023/07/22 00:17:33;;;;;;;0.90;0.60;;;17.40;1.00;;;;;;5077353;28;20432;-52
2023/07/22 00:20:00;;;;;;;1.02;0.60;;;17.40;1.00;;;;;;5076848;28;20515;-54
2023/07/22 00:22:27;;;;;;;0.80;0.50;;;17.30;1.00;;;;;;5077127;28;20420;-49
2023/07/22 00:24:59;;;;;;;1.20;0.50;;;17.30;44.90;;;;;;5076148;28;20432;-53
2023/07/22 00:27:26;;;;;;;1.00;0.60;;;17.30;60.30;;;;;;5076764;28;20431;-51
2023/07/22 00:29:53;;;;;;;1.95;0.80;;;17.30;89.40;;;;;;5073693;28;20431;-51
2023/07/22 00:32:20;;;;;;;0.98;0.60;;;17.30;99.90;;;;;;5076218;28;20428;-51
2023/07/22 00:34:47;;;;;;;0.90;0.60;;;17.20;99.90;;;;;;5076573;28;20477;-47
2023/07/22 00:37:16;;;;;;;0.80;0.60;;;17.00;99.90;;;;;;5076641;28;20426;-52
2023/07/22 00:39:43;;;;;;;1.08;0.60;;;16.80;1.00;;;;;;5076701;28;20546;-50
2023/07/22 00:42:12;;;;;;;0.80;0.52;;;16.80;1.00;;;;;;5076553;28;20428;-51
2023/07/22 00:44:39;;;;;;;1.10;0.60;;;16.60;1.00;;;;;;5076406;28;20878;-51
2023/07/22 00:47:06;;;;;;;1.00;0.60;;;16.50;1.00;;;;;;5076004;28;20479;-48
2023/07/22 00:49:33;;;;;;;0.90;0.50;;;16.40;1.00;;;;;;5076027;28;20412;-51
2023/07/22 00:52:02;;;;;;;0.80;0.60;;;16.30;1.00;;;;;;5076389;28;20446;-47
2023/07/22 00:54:29;;;;;;;0.93;0.60;;;16.40;1.00;;;;;;5076179;28;20432;-48
2023/07/22 00:56:57;;;;;;;0.88;0.60;;;16.30;1.00;;;;;;5076066;28;20854;-48
2023/07/22 00:59:26;;;;;;;0.80;0.50;;;16.40;1.00;;;;;;5075770;28;20908;-49
2023/07/22 01:01:53;;;;;;;0.70;0.50;;;16.40;1.00;;;;;;5076021;28;20500;-53
2023/07/22 01:04:22;;;;;;;0.82;0.50;;;16.40;1.00;;;;;;5075218;28;20485;-51
2023/07/22 01:06:52;;;;;;;1.02;0.60;;;16.40;1.00;;;;;;5075227;28;20427;-50
2023/07/22 01:09:19;;;;;;;0.80;0.50;;;16.40;1.00;;;;;;5075055;28;20513;-47
2023/07/22 01:11:47;;;;;;;0.90;0.60;;;16.40;1.00;;;;;;5075835;28;20435;-51
2023/07/22 01:14:15;;;;;;;1.38;0.52;;;16.30;1.00;;;;;;5076154;28;20431;-51
2023/07/22 01:16:44;;;;;;;0.80;0.50;;;16.30;1.00;;;;;;5075037;28;20415;-50
2023/07/22 01:19:15;;;;;;;1.80;0.60;;;16.30;1.00;;;;;;5075479;28;20510;-48
2023/07/22 01:21:44;;;;;;;1.00;0.50;;;16.40;1.00;;;;;;5075028;28;20428;-48
2023/07/22 01:24:13;;;;;;;0.80;0.50;;;16.40;1.00;;;;;;5075562;28;20431;-49
2023/07/22 01:26:40;;;;;;;0.90;0.50;;;16.50;1.00;;;;;;5075091;28;20443;-48
2023/07/22 01:29:07;;;;;;;0.70;0.50;;;16.60;1.00;;;;;;5075217;28;20438;-53
2023/07/22 01:31:36;;;;;;;0.90;0.60;;;16.70;1.00;;;;;;5074932;28;20419;-52
2023/07/22 01:34:03;;;;;;;0.70;0.50;;;16.70;1.00;;;;;;5074919;28;20511;-53
2023/07/22 01:36:31;;;;;;;2.00;0.60;;;16.60;1.00;;;;;;5073773;28;20474;-46
2023/07/22 01:38:58;;;;;;;1.30;0.52;;;16.50;1.00;;;;;;5074592;28;20432;-48
2023/07/22 01:41:26;;;;;;;1.10;0.60;;;16.50;1.00;;;;;;5074677;28;20427;-50
2023/07/22 01:43:53;;;;;;;1.00;0.60;;;16.40;1.00;;;;;;5074393;28;20431;-52
2023/07/22 01:46:21;;;;;;;1.30;0.50;;;16.40;1.00;;;;;;5074549;28;20778;-52
2023/07/22 01:48:48;;;;;;;0.80;0.50;;;16.40;1.00;;;;;;5075432;28;20439;-49
2023/07/22 01:51:15;;;;;;;0.90;0.50;;;16.40;1.00;;;;;;5075497;28;20428;-50
2023/07/22 01:53:42;;;;;;;0.80;0.60;;;16.30;1.00;;;;;;5075499;28;20431;-48
2023/07/22 01:56:09;;;;;;;0.80;0.50;;;16.20;1.00;;;;;;5074944;28;20426;-48
2023/07/22 01:58:37;;;;;;;0.73;0.50;;;16.10;1.00;;;;;;5074583;28;20423;-49
2023/07/22 02:01:05;;;;;;;0.90;0.50;;;16.10;1.00;;;;;;5075286;28;20472;-51
2023/07/22 02:03:32;;;;;;;0.93;0.53;;;16.00;1.00;;;;;;5075033;28;20427;-50
2023/07/22 02:06:03;;;;;;;0.80;0.50;;;16.10;1.00;;;;;;5074640;28;20530;-51
2023/07/22 02:08:30;;;;;;;0.80;0.50;;;16.00;1.00;;;;;;5075288;28;20793;-46
2023/07/22 02:11:02;;;;;;;1.15;0.50;;;15.90;1.00;;;;;;5075043;28;20423;-51
2023/07/22 02:13:29;;;;;;;1.40;0.50;;;15.90;1.00;;;;;;5074965;28;20568;-48
2023/07/22 02:15:58;;;;;;;1.15;0.60;;;15.90;1.00;;;;;;5075226;28;20420;-47
2023/07/22 02:18:25;;;;;;;1.00;0.50;;;15.80;1.00;;;;;;5074789;28;20438;-49
2023/07/22 02:20:52;;;;;;;0.80;0.50;;;15.80;1.00;;;;;;5074489;28;20431;-48
2023/07/22 02:23:19;;;;;;;0.90;0.50;;;15.80;1.00;;;;;;5073751;28;20590;-51
2023/07/22 02:25:49;;;;;;;0.70;0.50;;;15.80;1.00;;;;;;5074986;28;20439;-50
2023/07/22 02:28:20;;;;;;;0.80;0.50;;;15.80;1.00;;;;;;5074391;28;20415;-49
2023/07/22 02:30:47;;;;;;;1.33;0.60;;;15.80;1.00;;;;;;5074762;28;20778;-50
2023/07/22 02:33:16;;;;;;;1.80;0.60;;;15.70;1.00;;;;;;5074899;28;20427;-47
2023/07/22 02:35:43;;;;;;;0.80;0.60;;;15.90;1.00;;;;;;5075191;28;20427;-50
2023/07/22 02:38:11;;;;;;;0.85;0.50;;;16.00;1.00;;;;;;5074700;28;20435;-52
2023/07/22 02:40:38;;;;;;;1.30;0.50;;;16.10;1.00;;;;;;5074775;28;20423;-52
2023/07/22 02:43:06;;;;;;;0.82;0.50;;;16.10;1.00;;;;;;5073778;28;20477;-52
2023/07/22 02:45:33;;;;;;;0.90;0.40;;;16.10;1.00;;;;;;5074343;28;20438;-50
2023/07/22 02:48:00;;;;;;;0.90;0.50;;;16.20;1.00;;;;;;5074337;28;20435;-48
2023/07/22 02:50:29;;;;;;;0.85;0.50;;;16.10;1.00;;;;;;5074469;28;20427;-47
2023/07/22 02:52:56;;;;;;;0.90;0.50;;;16.10;1.00;;;;;;5074611;28;20431;-49
2023/07/22 02:55:23;;;;;;;1.00;0.50;;;16.10;1.00;;;;;;5074384;28;20408;-47
2023/07/22 02:57:50;;;;;;;1.00;0.50;;;16.10;1.00;;;;;;5074828;28;20435;-51
2023/07/22 03:00:23;;;;;;;0.90;0.60;;;16.10;1.00;;;;;;5073134;28;20847;-50
2023/07/22 03:02:51;;;;;;;1.40;0.50;;;16.20;1.00;;;;;;5073595;28;20516;-50
2023/07/22 03:05:19;;;;;;;0.80;0.50;;;16.20;1.00;;;;;;5074649;28;20446;-47
2023/07/22 03:07:47;;;;;;;0.90;0.50;;;16.10;1.00;;;;;;5074160;28;20435;-52
2023/07/22 03:10:14;;;;;;;0.80;0.50;;;16.10;1.00;;;;;;5073720;28;20416;-51
2023/07/22 03:12:41;;;;;;;1.08;0.50;;;16.00;1.00;;;;;;5074450;28;20431;-52
2023/07/22 03:15:09;;;;;;;1.00;0.43;;;16.10;1.00;;;;;;5074007;28;20501;-49
2023/07/22 03:17:36;;;;;;;0.97;0.50;;;16.10;1.00;;;;;;5073943;28;20427;-47
2023/07/22 03:20:08;;;;;;;1.30;0.60;;;15.90;1.00;;;;;;5074033;28;20426;-51
2023/07/22 03:22:35;;;;;;;0.80;0.50;;;15.70;1.00;;;;;;5074129;28;20493;-48
2023/07/22 03:25:07;;;;;;;1.90;0.60;;;15.90;1.00;;;;;;5074309;28;20411;-50
2023/07/22 03:27:34;;;;;;;0.98;0.50;;;16.00;1.00;;;;;;5074395;28;20755;-50
2023/07/22 03:30:02;;;;;;;0.80;0.50;;;16.10;1.00;;;;;;5073603;28;20427;-49
2023/07/22 03:32:29;;;;;;;1.02;0.50;;;16.00;1.00;;;;;;5074444;28;20431;-50
2023/07/22 03:34:56;;;;;;;0.80;0.50;;;15.90;1.00;;;;;;5072529;28;20435;-51
2023/07/22 03:37:23;;;;;;;1.17;0.50;;;15.80;1.00;;;;;;5073089;28;20423;-51
2023/07/22 03:39:50;;;;;;;1.10;0.70;;;15.80;1.00;;;;;;5073622;28;20476;-50
2023/07/22 03:42:18;;;;;;;1.13;0.50;;;15.70;1.00;;;;;;5074166;28;20530;-49
2023/07/22 03:44:45;;;;;;;0.90;0.50;;;15.60;1.00;;;;;;5073851;28;20457;-48
2023/07/22 03:47:12;;;;;;;0.70;0.50;;;15.60;1.00;;;;;;5073535;28;20432;-51
2023/07/22 03:49:39;;;;;;;0.90;0.60;;;15.60;1.00;;;;;;5073813;28;20516;-50
2023/07/22 03:52:08;;;;;;;0.90;0.60;;;15.40;1.00;;;;;;5073715;28;20790;-51
2023/07/22 03:54:35;;;;;;;1.10;0.50;;;15.20;1.00;;;;;;5074171;28;20481;-53
2023/07/22 03:57:01;;;;;;;1.00;0.70;;;15.20;1.00;;;;;;5073434;28;20423;-51
2023/07/22 03:59:30;;;;;;;1.15;0.50;;;15.10;1.00;;;;;;5073819;28;20415;-52
2023/07/22 04:01:57;;;;;;;0.80;0.50;;;15.10;1.00;;;;;;5077015;28;20465;-50
2023/07/22 04:04:24;;;;;;;0.90;0.60;;;15.10;1.00;;;;;;5076419;28;20536;-51
2023/07/22 04:06:51;;;;;;;1.00;0.50;;;15.10;1.00;;;;;;5075782;28;20489;-52
2023/07/22 04:09:18;;;;;;;1.30;0.60;;;15.10;1.00;;;;;;5075270;28;20431;-52
2023/07/22 04:11:45;;;;;;;1.00;0.60;;;15.40;1.00;;;;;;5076082;28;20481;-53
2023/07/22 04:14:12;;;;;;;1.50;0.50;;;15.70;1.00;;;;;;5076430;28;20484;-49
2023/07/22 04:16:40;;;;;;;1.50;0.60;;;15.80;1.00;;;;;;5075588;28;20427;-50
2023/07/22 04:19:07;;;;;;;0.70;0.40;;;15.80;1.00;;;;;;5076506;28;20435;-49
2023/07/22 04:21:34;;;;;;;0.80;0.50;;;15.80;1.00;;;;;;5076914;28;20492;-50
2023/07/22 04:24:01;;;;;;;1.80;0.60;;;15.70;1.00;;;;;;5076391;28;20423;-51
2023/07/22 04:26:29;;;;;;;0.80;0.60;;;15.60;1.00;;;;;;5075534;28;20438;-49
2023/07/22 04:28:56;;;;;;;0.90;0.60;;;15.50;1.00;;;;;;5075661;28;20835;-52
2023/07/22 04:31:23;;;;;;;0.85;0.50;;;15.50;1.00;;;;;;5075687;28;20458;-48
2023/07/22 04:33:51;;;;;;;1.80;0.50;;;15.40;1.00;;;;;;5076444;28;20420;-52
2023/07/22 04:36:18;;;;;;;0.90;0.50;;;15.50;1.00;;;;;;5076778;28;20473;-53
2023/07/22 04:38:45;;;;;;;1.48;0.50;;;15.40;1.00;;;;;;5076278;28;20862;-51
2023/07/22 04:41:12;;;;;;;0.95;0.60;;;15.30;1.00;;;;;;5075730;28;20831;-49
2023/07/22 04:43:39;;;;;;;1.65;0.50;;;15.30;1.00;;;;;;5075261;28;20489;-52
2023/07/22 04:46:07;;;;;;;1.80;0.60;;;15.40;1.00;;;;;;5075853;28;20493;-49
2023/07/22 04:48:34;;;;;;;0.70;0.50;;;15.40;1.00;;;;;;5075937;28;20459;-48
2023/07/22 04:51:03;;;;;;;0.73;0.50;;;15.50;1.00;;;;;;5075731;28;20431;-50
2023/07/22 04:53:30;;;;;;;1.00;0.50;;;15.50;1.00;;;;;;5075874;28;20424;-52
2023/07/22 04:55:57;;;;;;;0.90;0.50;;;15.60;1.00;;;;;;5076370;28;20506;-48
2023/07/22 04:58:24;;;;;;;0.80;0.55;;;15.60;1.00;;;;;;5076884;28;20458;-50
2023/07/22 05:00:51;;;;;;;2.90;0.60;;;15.60;1.00;;;;;;5075508;28;20431;-48
2023/07/22 05:03:19;;;;;;;1.15;0.50;;;15.60;1.00;;;;;;5073309;28;20871;-46
2023/07/22 05:05:46;;;;;;;0.80;0.50;;;15.70;1.00;;;;;;5074311;28;20449;-53
2023/07/22 05:08:14;;;;;;;0.80;0.50;;;15.80;1.00;;;;;;5074771;28;20430;-48
2023/07/22 05:10:41;;;;;;;1.20;0.50;;;15.80;1.00;;;;;;5074457;28;20431;-51
2023/07/22 05:13:08;;;;;;;1.00;0.50;;;15.80;1.00;;;;;;5074749;28;20454;-51
2023/07/22 05:15:35;;;;;;;0.90;0.50;;;15.90;1.00;;;;;;5074825;28;20489;-51
2023/07/22 05:18:02;;;;;;;0.80;0.50;;;16.00;1.00;;;;;;5075250;28;20424;-48
2023/07/22 05:20:29;;;;;;;0.82;0.47;;;16.00;1.00;;;;;;5075442;28;20629;-52
2023/07/22 05:22:56;;;;;;;0.70;0.50;;;16.10;1.00;;;;;;5075264;28;20420;-48
2023/07/22 05:25:25;;;;;;;1.20;0.50;;;16.20;1.00;;;;;;5072718;28;20481;-47
2023/07/22 05:27:52;;;;;;;1.10;0.60;;;16.30;1.00;;;;;;5075024;28;20916;-49
2023/07/22 05:30:19;;;;;;;0.90;0.50;;;16.40;1.00;;;;;;5074835;28;20904;-46
2023/07/22 05:32:46;;;;;;;0.80;0.50;;;16.50;1.00;;;;;;5075701;28;20492;-50
2023/07/22 05:35:13;;;;;;;0.95;0.60;;;16.70;1.00;;;;;;5075311;28;20423;-49
2023/07/22 05:37:40;;;;;;;0.90;0.60;;;16.80;1.00;;;;;;5075174;28;20428;-49
2023/07/22 05:40:08;;;;;;;1.00;0.60;;;16.90;1.00;;;;;;5074041;28;20521;-53
2023/07/22 05:42:36;;;;;;;0.80;0.60;;;16.80;1.00;;;;;;5073745;28;20460;-54
2023/07/22 05:45:05;;;;;;;1.00;0.60;;;16.70;1.00;;;;;;5073474;28;20431;-54
2023/07/22 05:47:32;;;;;;;0.90;0.60;;;16.70;1.00;;;;;;5071924;28;20870;-53
2023/07/22 05:49:59;;;;;;;1.20;0.52;;;16.70;1.00;;;;;;5073133;28;20465;-53
2023/07/22 05:52:26;;;;;;;0.80;0.50;;;16.80;1.00;;;;;;5072731;28;20431;-51
2023/07/22 05:54:54;;;;;;;0.70;0.50;;;16.90;1.00;;;;;;5073170;28;20427;-55
2023/07/22 05:57:21;;;;;;;0.80;0.50;;;17.00;1.00;;;;;;5074022;28;20423;-51
2023/07/22 05:59:49;;;;;;;1.30;0.60;;;17.00;1.00;;;;;;5074697;28;20484;-51
2023/07/22 06:02:18;;;;;;;0.80;0.50;;;17.10;99.90;;;;;;5073744;28;20501;-50
2023/07/22 06:04:45;;;;;;;1.20;0.50;;;17.10;1.00;;;;;;5060506;28;20523;-53
2023/07/22 06:07:12;;;;;;;0.70;0.50;;;17.20;1.00;;;;;;5072940;28;20436;-49
2023/07/22 06:09:39;;;;;;;1.50;0.55;;;17.20;99.90;;;;;;5073036;28;20458;-51
2023/07/22 06:12:06;;;;;;;1.10;0.60;;;17.30;99.90;;;;;;5073049;28;20462;-50
2023/07/22 06:14:33;;;;;;;1.10;0.50;;;17.40;99.90;;;;;;5072535;28;20419;-52
2023/07/22 06:17:02;;;;;;;0.80;0.57;;;17.50;99.90;;;;;;5073140;28;20473;-50
2023/07/22 06:19:29;;;;;;;1.00;0.50;;;17.80;99.90;;;;;;5072879;28;20439;-57
2023/07/22 06:21:56;;;;;;;0.80;0.50;;;18.00;1.00;;;;;;5072131;28;20435;-59
2023/07/22 06:24:23;;;;;;;2.00;0.60;;;18.10;1.00;;;;;;5072669;28;20480;-57
2023/07/22 06:26:50;;;;;;;0.70;0.50;;;18.10;99.90;;;;;;5073739;28;20503;-59
2023/07/22 06:29:17;;;;;;;0.90;0.60;;;18.10;1.00;;;;;;5072861;28;20828;-57
2023/07/22 06:31:44;;;;;;;0.77;0.50;;;18.20;1.00;;;;;;5072935;28;20485;-58
2023/07/22 06:34:12;;;;;;;0.90;0.60;;;18.20;99.90;;;;;;5071855;28;20520;-56
2023/07/22 06:36:39;;;;;;;1.05;0.50;;;18.20;99.90;;;;;;5072161;28;20928;-56
2023/07/22 06:39:06;;;;;;;1.08;0.50;;;18.20;1.00;;;;;;5072051;28;20434;-55
2023/07/22 06:41:33;;;;;;;0.95;0.60;;;18.20;99.90;;;;;;5073375;28;20478;-56
2023/07/22 06:44:00;;;;;;;0.90;0.60;;;18.20;99.90;;;;;;5073969;28;20420;-56
2023/07/22 06:46:27;;;;;;;0.82;0.50;;;18.40;1.00;;;;;;5072485;28;20621;-55
2023/07/22 06:48:54;;;;;;;1.10;0.70;;;18.70;99.90;;;;;;5071153;28;20479;-54
2023/07/22 06:51:22;;;;;;;1.10;0.63;;;18.90;1.00;;;;;;5071567;28;20480;-55
2023/07/22 06:53:49;;;;;;;0.73;0.60;;;18.90;7.20;;;;;;5072119;28;20434;-55
2023/07/22 06:56:16;;;;;;;1.20;0.50;;;18.90;1.00;;;;;;5070884;28;20423;-56
2023/07/22 06:58:44;;;;;;;1.05;0.60;;;18.80;1.00;;;;;;5073610;28;20434;-51
2023/07/22 07:01:12;;;;;;;1.40;0.50;;;18.70;1.00;;;;;;5065429;28;20439;-54
2023/07/22 07:03:39;;;;;;;1.25;0.57;;;18.80;99.90;;;;;;5073847;28;20423;-56
2023/07/22 07:06:06;;;;;;;1.20;0.60;;;18.90;44.70;;;;;;5072628;28;20428;-56
2023/07/22 07:08:35;;;;;;;0.80;0.50;;;19.10;1.00;;;;;;5071958;28;20489;-55
2023/07/22 07:11:02;;;;;;;0.82;0.50;;;19.30;1.00;;;;;;5073124;28;20427;-59
2023/07/22 07:13:29;;;;;;;0.95;0.50;;;19.30;99.90;;;;;;5073619;28;20423;-58
2023/07/22 07:15:56;;;;;;;0.90;0.50;;;19.40;1.00;;;;;;5072847;28;20432;-58
2023/07/22 07:18:23;;;;;;;1.05;0.55;;;19.60;1.00;;;;;;5073473;28;20424;-58
2023/07/22 07:20:50;;;;;;;0.70;0.50;;;19.60;99.90;;;;;;5073057;28;20427;-58
2023/07/22 07:23:17;;;;;;;1.08;0.55;;;19.70;1.00;;;;;;5073187;28;20428;-58
2023/07/22 07:25:46;;;;;;;0.80;0.50;;;19.80;1.00;;;;;;5073959;28;20496;-58
2023/07/22 07:28:14;;;;;;;2.00;0.60;;;19.90;1.00;;;;;;5072980;28;20435;-59
2023/07/22 07:30:41;;;;;;;1.00;0.60;;;20.10;1.00;;;;;;5063082;28;20761;-57
2023/07/22 07:33:08;;;;;;;0.80;0.52;;;20.10;99.90;;;;;;5051765;28;20548;-59
2023/07/22 07:35:35;;;;;;;0.90;0.50;;;20.10;99.90;;;;;;5058021;28;20493;-59
2023/07/22 07:38:03;;;;;;;1.00;0.50;;;20.30;99.90;;;;;;5075135;28;20426;-59
2023/07/22 07:40:31;;;;;;;1.20;0.60;;;20.70;1.00;;;;;;5075802;28;20431;-58
2023/07/22 07:43:00;;;;;;;0.85;0.50;;;20.90;1.00;;;;;;5077084;28;20431;-59
2023/07/22 07:45:27;;;;;;;1.20;0.60;;;20.90;1.00;;;;;;5075695;28;20837;-59
2023/07/22 07:47:54;;;;;;;1.70;0.50;;;20.90;1.00;;;;;;5075504;28;20436;-60
2023/07/22 07:50:21;;;;;;;0.90;0.40;;;21.20;99.90;;;;;;5076156;28;20803;-58
2023/07/22 07:52:48;;;;;;;1.80;0.50;;;21.40;99.90;;;;;;5077235;28;20489;-58
2023/07/22 07:55:15;;;;;;;1.00;0.50;;;21.50;99.90;;;;;;5076692;28;20835;-59
2023/07/22 07:57:42;;;;;;;0.90;0.50;;;21.60;99.90;;;;;;5075607;28;20677;-60
2023/07/22 08:00:11;;;;;;;0.60;0.40;;;21.70;99.90;;;;;;5075810;28;20864;-59
2023/07/22 08:02:38;;;;;;;0.70;0.40;;;21.80;79.10;;;;;;5075633;28;20434;-60
2023/07/22 08:05:06;;;;;;;0.53;0.40;;;21.90;45.00;;;;;;5076354;28;20472;-60
2023/07/22 08:07:34;;;;;;;0.90;0.40;;;22.00;35.30;;;;;;5076333;28;20529;-60
2023/07/22 08:10:03;;;;;;;0.80;0.40;;;21.90;1.00;;;;;;5077433;28;20435;-59
2023/07/22 08:12:31;;;;;;;0.70;0.40;;;21.90;1.00;;;;;;5076900;28;20457;-59
2023/07/22 08:14:58;;;;;;;1.05;0.40;;;21.80;1.00;;;;;;5074148;28;20777;-59
2023/07/22 08:17:26;;;;;;;0.70;0.40;;;21.80;1.00;;;;;;5072126;28;20552;-58
2023/07/22 08:19:53;;;;;;;0.50;0.30;;;21.90;1.00;;;;;;5073315;28;20757;-59
2023/07/22 08:22:20;;;;;;;0.70;0.40;;;22.00;1.00;;;;;;5074283;28;20439;-58
2023/07/22 08:24:47;;;;;;;0.90;0.40;;;21.90;1.00;;;;;;5075413;28;20777;-58
2023/07/22 08:27:14;;;;;;;0.60;0.40;;;22.00;1.00;;;;;;5075380;28;20490;-58
2023/07/22 08:29:41;;;;;;;0.70;0.40;;;22.00;1.00;;;;;;5074556;28;20782;-59
2023/07/22 08:32:08;;;;;;;0.50;0.30;;;22.20;1.00;;;;;;5073648;28;20432;-59
2023/07/22 08:34:37;;;;;;;1.60;0.40;;;22.40;1.00;;;;;;5073665;28;20471;-58
2023/07/22 08:37:04;;;;;;;0.70;0.40;;;22.50;1.00;;;;;;5069540;28;20462;-56
2023/07/22 08:39:32;;;;;;;0.60;0.40;;;22.70;1.00;;;;;;5071007;28;20502;-56
2023/07/22 08:42:03;;;;;;;0.60;0.40;;;23.00;1.00;;;;;;5068245;28;20450;-56
2023/07/22 08:44:35;;;;;;;0.93;0.40;;;23.20;1.00;;;;;;5068499;28;20801;-56
2023/07/22 08:47:03;;;;;;;1.00;0.40;;;23.40;1.00;;;;;;5071556;28;20466;-56
2023/07/22 08:49:31;;;;;;;0.95;0.30;;;23.40;1.00;;;;;;5072867;28;20505;-54
2023/07/22 08:52:01;;;;;;;1.00;0.30;;;23.50;1.00;;;;;;5074706;28;20435;-55
2023/07/22 08:54:29;;;;;;;0.60;0.35;;;23.50;1.00;;;;;;5071184;28;20463;-57
2023/07/22 08:56:56;;;;;;;0.60;0.40;;;23.50;1.00;;;;;;5074427;28;20848;-58
2023/07/22 08:59:25;;;;;;;0.60;0.30;;;23.90;1.00;;;;;;5073536;28;20485;-58
2023/07/22 09:01:52;;;;;;;0.60;0.30;;;24.30;1.00;;;;;;5073080;28;20476;-57
2023/07/22 09:04:20;;;;;;;0.60;0.30;;;24.50;1.00;;;;;;5074939;28;20950;-55
2023/07/22 09:06:47;;;;;;;0.60;0.40;;;24.50;1.00;;;;;;5075823;28;20430;-55
2023/07/22 09:09:16;;;;;;;0.60;0.40;;;24.50;1.00;;;;;;5073390;28;20870;-56
2023/07/22 09:11:43;;;;;;;0.60;0.30;;;24.40;1.00;;;;;;5074250;28;20851;-57
2023/07/22 09:14:11;;;;;;;0.63;0.40;;;24.30;1.00;;;;;;5073241;28;20435;-55
2023/07/22 09:16:38;;;;;;;0.70;0.40;;;24.20;1.00;;;;;;5072442;28;20431;-56
2023/07/22 09:19:06;;;;;;;0.70;0.30;;;24.10;1.00;;;;;;5071536;28;20485;-55
2023/07/22 09:21:35;;;;;;;0.60;0.40;;;24.10;1.00;;;;;;5073252;28;20421;-57
2023/07/22 09:24:03;;;;;;;0.70;0.40;;;24.10;1.00;;;;;;5073194;28;20471;-56
2023/07/22 09:26:34;;;;;;;0.50;0.30;;;24.30;1.00;;;;;;5072644;28;20699;-56
2023/07/22 09:29:01;;;;;;;0.70;0.40;;;24.10;1.00;;;;;;5067303;28;20839;-55
2023/07/22 09:31:29;;;;;;;0.50;0.30;;;23.90;1.00;;;;;;5068001;28;20443;-56
2023/07/22 09:33:56;;;;;;;1.10;0.40;;;23.90;1.00;;;;;;5068609;28;20522;-55
2023/07/22 09:36:23;;;;;;;0.60;0.40;;;23.80;1.00;;;;;;5068583;28;20447;-55
2023/07/22 09:39:02;;;;;;;0.60;0.40;;;23.70;1.00;;;;;;5071937;28;20509;-57
2023/07/22 09:41:31;;;;;;;0.68;0.40;;;23.80;1.00;;;;;;5070998;28;20487;-56
2023/07/22 09:43:58;;;;;;;1.30;0.40;;;23.90;1.00;;;;;;5071142;28;20427;-57
2023/07/22 09:46:33;;;;;;;0.75;0.30;;;24.10;1.00;;;;;;5072220;28;20874;-57
2023/07/22 09:49:04;;;;;;;0.50;0.40;;;24.10;1.00;;;;;;5072594;28;20438;-56
2023/07/22 09:51:35;;;;;;;0.70;0.40;;;24.10;1.00;;;;;;5073931;28;20432;-55
2023/07/22 09:54:05;;;;;;;0.60;0.30;;;24.20;1.00;;;;;;5067703;28;20522;-56
2023/07/22 09:56:44;;;;;;;0.60;0.30;;;24.30;1.00;;;;;;5068186;28;20506;-55
2023/07/22 09:59:12;;;;;;;0.60;0.40;;;24.50;1.00;;;;;;5066176;28;20441;-57
2023/07/22 10:01:39;;;;;;;0.70;0.40;;;24.30;1.00;;;;;;5068348;28;20730;-57
2023/07/22 10:04:07;;;;;;;0.60;0.30;;;24.40;1.00;;;;;;5064006;28;20632;-58
2023/07/22 10:06:35;;;;;;;0.50;0.30;;;24.50;1.00;;;;;;5068284;28;20922;-57
2023/07/22 10:09:06;;;;;;;1.10;0.40;;;24.70;1.00;;;;;;5070543;28;20633;-57
2023/07/22 10:11:36;;;;;;;0.70;0.30;;;24.90;1.00;;;;;;5070038;28;20466;-57
2023/07/22 10:14:03;;;;;;;0.90;0.30;;;25.10;1.00;;;;;;5078364;28;21123;-57
2023/07/22 10:16:31;;;;;;;0.68;0.40;;;25.30;1.00;;;;;;5073198;28;20428;-57
2023/07/22 10:18:59;;;;;;;0.63;0.40;;;25.40;1.00;;;;;;5067910;28;20433;-57
2023/07/22 10:21:29;;;;;;;0.50;0.30;;;25.30;1.00;;;;;;5070816;28;20470;-56
2023/07/22 10:23:57;;;;;;;0.60;0.30;;;25.30;1.00;;;;;;5069745;28;20451;-57
2023/07/22 10:26:24;;;;;;;0.60;0.40;;;25.40;1.00;;;;;;5074700;28;20432;-57
2023/07/22 10:28:52;;;;;;;1.00;0.30;;;25.20;1.00;;;;;;5066597;28;20435;-56
2023/07/22 10:31:20;;;;;;;0.60;0.30;;;24.90;1.00;;;;;;5069416;28;20439;-57
2023/07/22 10:33:47;;;;;;;0.50;0.30;;;25.00;1.00;;;;;;5068499;28;20443;-56
2023/07/22 10:36:16;;;;;;;0.60;0.30;;;24.80;1.00;;;;;;5071808;28;20517;-57
2023/07/22 10:38:43;;;;;;;0.60;0.30;;;24.60;1.00;;;;;;5067241;28;20424;-57
2023/07/22 10:41:16;;;;;;;0.60;0.40;;;25.00;1.00;;;;;;5065114;28;20732;-57
2023/07/22 10:43:54;;;;;;;0.80;0.50;;;25.30;1.00;;;;;;5067245;28;20439;-56
2023/07/22 10:46:33;;;;;;;0.60;0.30;;;25.70;1.00;;;;;;5063296;28;20785;-56
2023/07/22 10:49:10;;;;;;;0.60;0.30;;;25.90;1.00;;;;;;5059835;28;20493;-57
2023/07/22 10:51:38;;;;;;;1.20;0.40;;;26.40;1.00;;;;;;5070857;28;20549;-55
2023/07/22 10:54:12;;;;;;;0.60;0.40;;;26.50;1.00;;;;;;5060557;28;20445;-56
2023/07/22 10:56:39;;;;;;;0.60;0.30;;;26.50;1.00;;;;;;5067849;28;20443;-58
2023/07/22 10:59:06;;;;;;;0.60;0.40;;;26.20;1.00;;;;;;5068644;28;20462;-58
2023/07/22 11:01:36;;;;;;;0.50;0.30;;;26.40;1.00;;;;;;5068086;28;20806;-57
2023/07/22 11:07:08;;;;;;;0.50;0.40;;;26.70;1.00;;;;;;5069008;28;20431;-56
2023/07/22 11:09:36;;;;;;;0.80;0.30;;;26.70;1.00;;;;;;5071937;28;20861;-57
2023/07/22 11:12:06;;;;;;;0.60;0.30;;;26.80;1.00;;;;;;5072872;28;20419;-58
2023/07/22 11:14:35;;;;;;;0.60;0.40;;;26.50;1.00;;;;;;5071188;28;20488;-54
2023/07/22 11:17:05;;;;;;;0.80;0.30;;;26.20;1.00;;;;;;5072045;28;20427;-57
2023/07/22 11:19:33;;;;;;;0.60;0.40;;;25.70;1.00;;;;;;5072099;28;20584;-55
2023/07/22 11:22:01;;;;;;;0.90;0.40;;;25.50;1.00;;;;;;5073742;28;20433;-56
2023/07/22 11:24:28;;;;;;;1.20;0.40;;;25.50;1.00;;;;;;5073780;28;20520;-57
2023/07/22 11:26:55;;;;;;;0.80;0.38;;;25.70;1.00;;;;;;5070747;28;20474;-56
2023/07/22 11:29:22;;;;;;;1.20;0.40;;;25.70;1.00;;;;;;5072806;28;20524;-55
2023/07/22 11:31:51;;;;;;;0.70;0.40;;;25.60;1.00;;;;;;5061883;28;20894;-57
2023/07/22 11:34:21;;;;;;;1.90;0.40;;;25.70;1.00;;;;;;5070924;28;20448;-58
2023/07/22 11:36:49;;;;;;;0.90;0.50;;;26.10;1.00;;;;;;5070052;28;20431;-57
2023/07/22 11:39:17;;;;;;;0.60;0.40;;;26.90;1.00;;;;;;5064207;28;20447;-60
2023/07/22 11:41:45;;;;;;;0.60;0.40;;;26.80;1.00;;;;;;5068983;28;20431;-60
2023/07/22 11:44:13;;;;;;;0.60;0.30;;;26.80;1.00;;;;;;5060617;28;20967;-58
2023/07/22 11:46:49;;;;;;;0.50;0.30;;;26.70;1.00;;;;;;5068833;28;20478;-58
2023/07/22 11:49:28;;;;;;;0.50;0.30;;;26.80;1.00;;;;;;5074032;28;20490;-58
2023/07/22 11:51:56;;;;;;;1.10;0.40;;;27.40;1.00;;;;;;5066608;28;20498;-59
2023/07/22 11:54:23;;;;;;;0.80;0.40;;;27.60;1.00;;;;;;5068035;28;20442;-58
2023/07/22 11:56:50;;;;;;;1.37;0.40;;;27.80;1.00;;;;;;5065970;28;20442;-58
2023/07/22 11:59:18;;;;;;;0.50;0.40;;;28.20;1.00;;;;;;5063443;28;20716;-59
2023/07/22 12:01:46;;;;;;;0.80;0.40;;;28.20;1.00;;;;;;5069437;28;20443;-58
2023/07/22 12:04:14;;;;;;;1.00;0.50;;;28.00;1.00;;;;;;5061798;28;21022;-57
2023/07/22 12:06:43;;;;;;;0.90;0.40;;;27.60;1.00;;;;;;5072730;28;20438;-57
2023/07/22 12:09:11;;;;;;;0.50;0.30;;;27.00;1.00;;;;;;5072224;28;20863;-57
2023/07/22 12:11:38;;;;;;;2.30;0.40;;;26.80;1.00;;;;;;5073295;28;20888;-57
2023/07/22 12:14:08;;;;;;;0.60;0.40;;;26.50;1.00;;;;;;5071457;28;20585;-57
2023/07/22 12:16:37;;;;;;;0.90;0.30;;;26.30;1.00;;;;;;5072411;28;20446;-57
2023/07/22 12:19:04;;;;;;;0.90;0.40;;;26.30;1.00;;;;;;5071273;28;20798;-58
2023/07/22 12:21:32;;;;;;;0.60;0.40;;;26.20;1.00;;;;;;5073871;28;20443;-56
2023/07/22 12:24:01;;;;;;;1.00;0.40;;;26.20;1.00;;;;;;5073408;28;20889;-59
2023/07/22 12:26:28;;;;;;;0.50;0.30;;;26.70;1.00;;;;;;5074221;28;20459;-57
2023/07/22 12:28:55;;;;;;;0.55;0.40;;;27.50;1.00;;;;;;5074491;28;20427;-58
2023/07/22 12:31:22;;;;;;;1.30;0.43;;;28.10;1.00;;;;;;5074485;28;20424;-58
2023/07/22 12:33:49;;;;;;;0.60;0.40;;;28.40;1.00;;;;;;5072871;28;20793;-57
2023/07/22 12:36:16;;;;;;;0.70;0.40;;;28.00;1.00;;;;;;5069671;28;20513;-58
2023/07/22 12:38:43;;;;;;;0.60;0.30;;;27.40;1.00;;;;;;5073060;28;20488;-58
2023/07/22 12:41:12;;;;;;;0.77;0.37;;;27.10;1.00;;;;;;5074596;28;20473;-58
2023/07/22 12:43:39;;;;;;;0.70;0.40;;;26.80;1.00;;;;;;5070733;28;20436;-58
2023/07/22 12:46:06;;;;;;;0.52;0.35;;;26.80;1.00;;;;;;5071086;28;20506;-58
2023/07/22 12:48:33;;;;;;;0.70;0.40;;;26.90;1.00;;;;;;5073601;28;20461;-59
2023/07/22 12:51:00;;;;;;;1.00;0.35;;;26.80;1.00;;;;;;5073097;28;20512;-59
2023/07/22 12:53:27;;;;;;;0.70;0.40;;;26.60;1.00;;;;;;5068912;28;20562;-58
2023/07/22 12:55:54;;;;;;;0.70;0.40;;;26.40;1.00;;;;;;5071583;28;20441;-58
2023/07/22 12:58:23;;;;;;;0.60;0.40;;;26.50;1.00;;;;;;5073489;28;20443;-58
2023/07/22 13:00:50;;;;;;;0.90;0.40;;;26.90;1.00;;;;;;5072067;28;20435;-59